createdAt,value
2023-04-23T00:01:48.676Z,9.69
2023-04-23T00:05:53.114Z,9.59
2023-04-23T00:09:57.406Z,9.61
2023-04-23T00:14:01.887Z,9.60
2023-04-23T00:18:04.915Z,9.55
2023-04-23T00:22:08.087Z,9.53
2023-04-23T00:26:11.056Z,9.50
2023-04-23T00:30:16.830Z,9.50
2023-04-23T00:34:19.739Z,9.55
2023-04-23T00:38:22.607Z,9.54
2023-04-23T00:42:27.016Z,9.48
2023-04-23T00:46:31.298Z,9.45
2023-04-23T00:50:34.543Z,9.34
2023-04-23T00:54:37.468Z,9.33
2023-04-23T00:58:40.727Z,9.27
2023-04-23T01:02:46.138Z,9.18
2023-04-23T01:06:49.260Z,9.10
2023-04-23T01:10:52.225Z,9.05
2023-04-23T01:14:55.582Z,8.96
2023-04-23T01:19:00.208Z,8.95
2023-04-23T01:23:04.733Z,8.85
2023-04-23T01:27:07.927Z,8.81
2023-04-23T01:31:10.934Z,8.70
2023-04-23T01:35:14.206Z,8.64
2023-04-23T01:39:18.585Z,8.66
2023-04-23T01:43:21.585Z,8.55
2023-04-23T01:47:25.163Z,8.55
2023-04-23T01:51:29.554Z,8.69
2023-04-23T01:55:37.395Z,8.76
2023-04-23T01:59:41.438Z,8.82
2023-04-23T02:03:45.200Z,8.86
2023-04-23T02:07:48.643Z,8.93
2023-04-23T02:11:53.288Z,8.98
2023-04-23T02:15:56.275Z,9.00
2023-04-23T02:19:59.189Z,9.02
2023-04-23T02:24:02.044Z,9.04
2023-04-23T02:28:07.450Z,8.98
2023-04-23T02:32:10.393Z,8.93
2023-04-23T02:36:13.671Z,8.96
2023-04-23T02:40:16.569Z,8.96
2023-04-23T02:44:20.807Z,8.89
2023-04-23T02:48:24.046Z,8.83
2023-04-23T02:52:26.993Z,8.85
2023-04-23T02:56:30.042Z,8.90
2023-04-23T03:00:34.391Z,8.98
2023-04-23T03:04:37.416Z,8.99
2023-04-23T03:08:40.825Z,9.03
2023-04-23T03:12:44.526Z,9.06
2023-04-23T03:16:48.878Z,9.07
2023-04-23T03:20:52.669Z,9.10
2023-04-23T03:24:55.605Z,9.12
2023-04-23T03:28:58.838Z,9.12
2023-04-23T03:33:03.613Z,9.09
2023-04-23T03:37:07.279Z,9.08
2023-04-23T03:41:12.580Z,9.09
2023-04-23T03:45:15.926Z,9.13
2023-04-23T03:49:20.871Z,9.14
2023-04-23T03:53:23.915Z,9.21
2023-04-23T03:57:49.367Z,9.21
2023-04-23T04:01:58.547Z,9.18
2023-04-23T04:06:03.824Z,9.18
2023-04-23T04:10:07.657Z,9.12
2023-04-23T04:14:10.543Z,9.22
2023-04-23T04:18:13.694Z,9.24
2023-04-23T04:22:18.334Z,9.26
2023-04-23T04:26:21.360Z,9.34
2023-04-23T04:30:25.136Z,9.44
2023-04-23T04:34:28.038Z,9.59
2023-04-23T04:38:32.359Z,9.78
2023-04-23T04:42:35.273Z,10.04
2023-04-23T04:46:40.650Z,10.18
2023-04-23T04:50:44.356Z,10.28
2023-04-23T04:54:48.804Z,10.46
2023-04-23T04:58:51.733Z,10.62
2023-04-23T05:02:55.289Z,10.63
2023-04-23T05:06:58.249Z,10.82
2023-04-23T05:11:03.988Z,10.97
2023-04-23T05:15:07.588Z,11.01
2023-04-23T05:19:10.544Z,11.19
2023-04-23T05:23:13.437Z,11.26
2023-04-23T05:27:18.871Z,11.38
2023-04-23T05:31:21.890Z,11.48
2023-04-23T05:35:24.800Z,11.56
2023-04-23T05:39:27.837Z,11.65
2023-04-23T05:43:32.190Z,11.66
2023-04-23T05:47:35.087Z,11.71
2023-04-23T05:51:38.263Z,11.76
2023-04-23T05:55:41.121Z,11.76
2023-04-23T05:59:45.567Z,11.77
2023-04-23T06:03:48.622Z,11.75
2023-04-23T06:07:51.696Z,11.74
2023-04-23T06:11:54.830Z,11.87
2023-04-23T06:15:59.159Z,12.03
2023-04-23T06:20:02.112Z,12.18
2023-04-23T06:24:05.295Z,12.30
2023-04-23T06:28:08.292Z,12.36
2023-04-23T06:32:21.717Z,12.38
2023-04-23T06:36:24.800Z,12.32
2023-04-23T06:40:28.111Z,12.38
2023-04-23T06:44:31.046Z,12.44
2023-04-23T06:48:35.253Z,12.58
2023-04-23T06:52:38.287Z,12.74
2023-04-23T06:56:41.231Z,12.90
2023-04-23T07:00:44.533Z,13.02
2023-04-23T07:04:49.703Z,13.18
2023-04-23T07:08:52.645Z,13.28
2023-04-23T07:12:55.575Z,13.38
2023-04-23T07:16:59.376Z,13.45
2023-04-23T07:21:03.814Z,13.59
2023-04-23T07:25:08.751Z,13.69
2023-04-23T07:29:11.713Z,13.77
2023-04-23T07:33:14.652Z,13.91
2023-04-23T07:37:18.939Z,14.04
2023-04-23T07:41:21.940Z,14.17
2023-04-23T07:45:25.043Z,14.41
2023-04-23T07:49:28.690Z,14.70
2023-04-23T07:53:33.052Z,14.67
2023-04-23T07:57:36.124Z,15.14
2023-04-23T08:01:39.361Z,15.98
2023-04-23T08:05:42.681Z,16.00
2023-04-23T08:09:47.603Z,16.74
2023-04-23T08:13:51.016Z,16.92
2023-04-23T08:17:54.124Z,16.74
2023-04-23T08:21:57.197Z,17.55
2023-04-23T08:26:02.958Z,16.89
2023-04-23T08:30:07.637Z,16.54
2023-04-23T08:34:10.766Z,17.79
2023-04-23T08:38:13.820Z,17.63
2023-04-23T08:42:25.106Z,17.79
2023-04-23T08:46:30.145Z,17.46
2023-04-23T08:50:33.941Z,16.91
2023-04-23T08:54:38.827Z,16.89
2023-04-23T08:58:43.905Z,17.39
2023-04-23T09:02:47.784Z,17.92
2023-04-23T09:06:50.966Z,16.67
2023-04-23T09:10:56.021Z,16.94
2023-04-23T09:15:01.484Z,16.61
2023-04-23T09:19:07.439Z,17.22
2023-04-23T09:23:10.618Z,17.89
2023-04-23T09:27:13.812Z,18.68
2023-04-23T09:31:21.655Z,18.49
2023-04-23T09:35:28.894Z,17.76
2023-04-23T09:39:31.953Z,18.62
2023-04-23T09:43:35.161Z,19.78
2023-04-23T09:47:41.256Z,18.33
2023-04-23T09:51:47.416Z,17.67
2023-04-23T09:55:54.054Z,18.71
2023-04-23T10:00:11.113Z,17.53
2023-04-23T10:04:22.512Z,17.78
2023-04-23T10:08:26.436Z,17.82
2023-04-23T10:12:46.168Z,17.96
2023-04-23T10:16:53.234Z,18.41
2023-04-23T10:21:02.346Z,18.46
2023-04-23T10:25:08.988Z,18.86
2023-04-23T10:29:15.460Z,18.87
2023-04-23T10:33:29.504Z,18.09
2023-04-23T10:37:35.883Z,17.66
2023-04-23T10:41:40.665Z,18.99
2023-04-23T10:45:44.978Z,18.22
2023-04-23T10:49:51.804Z,17.29
2023-04-23T10:53:57.043Z,16.88
2023-04-23T10:58:02.665Z,17.05
2023-04-23T11:02:10.284Z,17.23
2023-04-23T11:06:15.842Z,17.01
2023-04-23T11:10:20.475Z,17.17
2023-04-23T11:14:34.502Z,17.15
2023-04-23T11:18:52.451Z,17.28
2023-04-23T11:22:55.969Z,17.35
2023-04-23T11:27:01.624Z,17.56
2023-04-23T11:31:05.038Z,17.47
2023-04-23T11:35:11.369Z,17.51
2023-04-23T11:39:16.181Z,17.55
2023-04-23T11:43:22.194Z,17.35
2023-04-23T11:47:27.353Z,18.03
2023-04-23T11:51:31.108Z,17.81
2023-04-23T11:55:34.621Z,17.54
2023-04-23T11:59:39.750Z,18.40
2023-04-23T12:03:51.223Z,19.00
2023-04-23T12:07:54.944Z,19.53
2023-04-23T12:11:59.347Z,18.55
2023-04-23T12:16:04.590Z,18.73
2023-04-23T12:20:12.089Z,19.43
2023-04-23T12:24:15.124Z,18.60
2023-04-23T12:28:23.708Z,18.07
2023-04-23T12:32:30.618Z,18.64
2023-04-23T12:36:37.058Z,19.31
2023-04-23T12:40:40.197Z,18.84
2023-04-23T12:44:43.252Z,17.92
2023-04-23T12:48:58.810Z,18.52
2023-04-23T12:53:02.809Z,18.52
2023-04-23T12:57:07.184Z,18.40
2023-04-23T13:01:11.900Z,18.54
2023-04-23T13:05:16.736Z,18.74
2023-04-23T13:09:19.984Z,18.51
2023-04-23T13:13:23.387Z,18.51
2023-04-23T13:17:26.678Z,19.07
2023-04-23T13:21:31.170Z,19.00
2023-04-23T13:25:34.193Z,18.74
2023-04-23T13:29:37.254Z,18.79
2023-04-23T13:33:40.377Z,18.58
2023-04-23T13:37:44.975Z,18.49
2023-04-23T13:41:59.163Z,18.32
2023-04-23T13:46:09.813Z,18.21
2023-04-23T13:50:12.806Z,18.16
2023-04-23T13:54:17.195Z,17.99
2023-04-23T13:58:20.229Z,17.81
2023-04-23T14:02:25.311Z,17.93
2023-04-23T14:06:28.979Z,17.47
2023-04-23T14:10:33.464Z,17.43
2023-04-23T14:14:36.625Z,17.35
2023-04-23T14:18:39.861Z,17.34
2023-04-23T14:22:43.261Z,17.12
2023-04-23T14:26:50.058Z,17.02
2023-04-23T14:30:56.012Z,16.95
2023-04-23T14:34:59.033Z,16.32
2023-04-23T14:39:05.344Z,14.77
2023-04-23T14:43:15.513Z,13.50
2023-04-23T14:47:19.328Z,12.99
2023-04-23T14:51:22.720Z,12.74
2023-04-23T14:55:25.931Z,12.60
2023-04-23T14:59:30.329Z,12.57
2023-04-23T15:03:33.652Z,12.49
2023-04-23T15:07:36.734Z,12.53
2023-04-23T15:11:42.274Z,12.51
2023-04-23T15:15:51.010Z,12.48
2023-04-23T15:19:56.216Z,12.49
2023-04-23T15:23:59.379Z,12.58
2023-04-23T15:28:03.190Z,12.58
2023-04-23T15:32:08.976Z,12.62
2023-04-23T15:36:12.238Z,12.66
2023-04-23T15:40:15.220Z,12.64
2023-04-23T15:44:19.086Z,12.84
2023-04-23T15:48:24.290Z,12.91
2023-04-23T15:52:27.325Z,12.92
2023-04-23T15:56:30.652Z,13.12
2023-04-23T16:00:33.978Z,13.23
2023-04-23T16:04:38.783Z,13.26
2023-04-23T16:08:42.065Z,13.14
2023-04-23T16:12:45.856Z,13.16
2023-04-23T16:16:49.065Z,13.09
2023-04-23T16:20:53.790Z,13.32
2023-04-23T16:24:56.836Z,13.23
2023-04-23T16:33:06.748Z,13.29
2023-04-23T16:37:13.193Z,13.37
2023-04-23T16:41:17.783Z,13.40
2023-04-23T16:45:23.275Z,13.37
2023-04-23T16:49:26.709Z,13.35
2023-04-23T16:53:31.262Z,13.30
2023-04-23T16:57:35.958Z,13.29
2023-04-23T17:01:39.383Z,13.26
2023-04-23T17:05:44.038Z,13.26
2023-04-23T17:09:48.760Z,13.25
2023-04-23T17:13:51.816Z,13.20
2023-04-23T17:17:55.230Z,13.17
2023-04-23T17:21:58.853Z,13.13
2023-04-23T17:26:03.392Z,13.08
2023-04-23T17:30:07.430Z,13.08
2023-04-23T17:34:10.659Z,13.06
2023-04-23T17:38:13.967Z,13.02
2023-04-23T17:42:18.641Z,13.02
2023-04-23T17:46:21.981Z,13.04
2023-04-23T17:50:25.402Z,13.06
2023-04-23T17:54:28.472Z,13.04
2023-04-23T17:58:33.501Z,12.94
2023-04-23T18:02:40.492Z,12.89
2023-04-23T18:06:43.866Z,12.91
2023-04-23T18:10:47.000Z,12.96
2023-04-23T18:14:51.760Z,12.88
2023-04-23T18:18:55.171Z,12.79
2023-04-23T18:22:58.219Z,12.78
2023-04-23T18:27:02.123Z,12.78
2023-04-23T18:31:06.857Z,12.76
2023-04-23T18:35:10.889Z,12.93
2023-04-23T18:39:14.022Z,12.91
2023-04-23T18:43:18.908Z,13.00
2023-04-23T18:47:26.084Z,12.98
2023-04-23T18:51:33.582Z,13.04
2023-04-23T18:55:38.084Z,13.58
2023-04-23T18:59:41.685Z,13.45
2023-04-23T19:03:46.721Z,13.37
2023-04-23T19:07:49.895Z,13.21
2023-04-23T19:11:52.936Z,13.06
2023-04-23T19:15:58.344Z,12.86
2023-04-23T19:20:02.927Z,12.71
2023-04-23T19:24:07.227Z,12.60
2023-04-23T19:28:10.749Z,12.55
2023-04-23T19:32:13.795Z,12.55
2023-04-23T19:36:18.270Z,12.52
2023-04-23T19:40:21.330Z,12.22
2023-04-23T19:44:24.343Z,12.00
2023-04-23T19:48:27.697Z,11.86
2023-04-23T19:52:32.183Z,11.67
2023-04-23T19:56:35.282Z,11.41
2023-04-23T20:00:41.464Z,11.14
2023-04-23T20:04:45.820Z,10.89
2023-04-23T20:09:07.430Z,10.73
2023-04-23T20:13:10.463Z,10.77
2023-04-23T20:17:13.422Z,10.83
2023-04-23T20:21:16.448Z,10.90
2023-04-23T20:25:24.863Z,10.93
2023-04-23T20:29:30.730Z,10.93
2023-04-23T20:33:33.954Z,10.91
2023-04-23T20:37:37.284Z,10.99
2023-04-23T20:41:41.594Z,11.00
2023-04-23T20:45:46.806Z,10.99
2023-04-23T20:49:51.161Z,11.07
2023-04-23T20:53:54.133Z,11.08
2023-04-23T20:57:58.692Z,11.09
2023-04-23T21:02:01.782Z,11.09
2023-04-23T21:06:05.002Z,11.14
2023-04-23T21:10:08.509Z,11.09
2023-04-23T21:14:12.893Z,11.07
2023-04-23T21:18:16.055Z,11.02
2023-04-23T21:22:19.230Z,10.99
2023-04-23T21:26:22.435Z,11.04
2023-04-23T21:30:31.049Z,11.07
2023-04-23T21:34:34.193Z,11.15
2023-04-23T21:38:37.116Z,11.17
2023-04-23T21:42:40.075Z,11.23
2023-04-23T21:46:44.997Z,11.26
2023-04-23T21:50:49.809Z,11.29
2023-04-23T21:54:52.717Z,11.30
2023-04-23T21:58:55.704Z,11.34
2023-04-23T22:03:00.444Z,11.37
2023-04-23T22:07:05.966Z,11.39
2023-04-23T22:11:09.171Z,11.41
2023-04-23T22:15:13.744Z,11.40
2023-04-23T22:19:18.834Z,11.35
2023-04-23T22:23:21.890Z,11.32
2023-04-23T22:27:24.902Z,11.31
2023-04-23T22:31:27.846Z,11.32
2023-04-23T22:35:32.432Z,11.30
2023-04-23T22:39:35.482Z,11.29
2023-04-23T22:43:39.238Z,11.26
2023-04-23T22:47:42.830Z,11.21
2023-04-23T22:51:47.225Z,11.19
2023-04-23T22:55:50.519Z,11.18
2023-04-23T22:59:53.486Z,11.17
2023-04-23T23:03:56.641Z,11.14
2023-04-23T23:08:01.054Z,11.12
2023-04-23T23:12:04.600Z,11.08
2023-04-23T23:16:08.205Z,11.05
2023-04-23T23:20:12.362Z,11.08
2023-04-23T23:24:17.520Z,11.06
2023-04-23T23:28:20.436Z,11.03
2023-04-23T23:32:23.363Z,11.01
2023-04-23T23:36:26.302Z,10.97
2023-04-23T23:40:30.625Z,10.89
2023-04-23T23:44:33.899Z,10.87
2023-04-23T23:48:36.846Z,10.84
2023-04-23T23:52:39.775Z,10.80
2023-04-23T23:56:44.322Z,10.78
